sensor_id;sensor_type;location;lat;lon;timestamp;pressure;altitude;pressure_sealevel;temperature;humidity
46045;BME280;31781;54.094;13.428;2023-02-22T00:01:26;101769.53;;;5.18;73.71
46045;BME280;31781;54.094;13.428;2023-02-22T00:03:29;101772.22;;;5.18;74.20
46045;BME280;31781;54.094;13.428;2023-02-22T00:05:31;101763.16;;;5.19;73.71
46045;BME280;31781;54.094;13.428;2023-02-22T00:07:33;101769.41;;;5.20;73.36
46045;BME280;31781;54.094;13.428;2023-02-22T00:09:34;101773.09;;;5.19;73.57
46045;BME280;31781;54.094;13.428;2023-02-22T00:11:36;101781.19;;;5.19;73.62
46045;BME280;31781;54.094;13.428;2023-02-22T00:13:40;101778.47;;;5.19;74.14
46045;BME280;31781;54.094;13.428;2023-02-22T00:15:42;101778.47;;;5.19;74.38
46045;BME280;31781;54.094;13.428;2023-02-22T00:17:44;101776.63;;;5.19;74.17
46045;BME280;31781;54.094;13.428;2023-02-22T00:19:47;101781.19;;;5.19;74.03
46045;BME280;31781;54.094;13.428;2023-02-22T00:21:50;101777.63;;;5.18;73.75
46045;BME280;31781;54.094;13.428;2023-02-22T00:23:54;101778.47;;;5.19;73.74
46045;BME280;31781;54.094;13.428;2023-02-22T00:25:57;101780.50;;;5.17;74.26
46045;BME280;31781;54.094;13.428;2023-02-22T00:27:59;101775.94;;;5.17;74.45
46045;BME280;31781;54.094;13.428;2023-02-22T00:30:04;101774.06;;;5.18;74.98
46045;BME280;31781;54.094;13.428;2023-02-22T00:32:06;101777.63;;;5.18;74.37
46045;BME280;31781;54.094;13.428;2023-02-22T00:34:07;101771.38;;;5.18;74.53
46045;BME280;31781;54.094;13.428;2023-02-22T00:36:11;101777.78;;;5.17;74.26
46045;BME280;31781;54.094;13.428;2023-02-22T00:38:14;101780.31;;;5.18;74.14
46045;BME280;31781;54.094;13.428;2023-02-22T00:40:19;101780.31;;;5.18;74.63
46045;BME280;31781;54.094;13.428;2023-02-22T00:42:21;101777.63;;;5.18;74.44
46045;BME280;31781;54.094;13.428;2023-02-22T00:44:23;101785.72;;;5.18;74.69
46045;BME280;31781;54.094;13.428;2023-02-22T00:46:26;101774.78;;;5.20;74.74
46045;BME280;31781;54.094;13.428;2023-02-22T00:48:27;101782.72;;;5.21;74.68
46045;BME280;31781;54.094;13.428;2023-02-22T00:50:30;101780.88;;;5.22;73.98
46045;BME280;31781;54.094;13.428;2023-02-22T00:52:32;101776.19;;;5.24;74.56
46045;BME280;31781;54.094;13.428;2023-02-22T00:54:34;101779.75;;;5.24;74.73
46045;BME280;31781;54.094;13.428;2023-02-22T00:56:36;101776.03;;;5.25;74.90
46045;BME280;31781;54.094;13.428;2023-02-22T00:58:38;101775.88;;;5.27;75.07
46045;BME280;31781;54.094;13.428;2023-02-22T01:00:41;101783.00;;;5.28;74.51
46045;BME280;31781;54.094;13.428;2023-02-22T01:02:45;101780.97;;;5.30;74.15
46045;BME280;31781;54.094;13.428;2023-02-22T01:04:47;101773.75;;;5.30;75.17
46045;BME280;31781;54.094;13.428;2023-02-22T01:06:48;101786.06;;;5.33;75.21
46045;BME280;31781;54.094;13.428;2023-02-22T01:08:50;101783.25;;;5.34;74.97
46045;BME280;31781;54.094;13.428;2023-02-22T01:10:52;101778.69;;;5.35;75.29
46045;BME280;31781;54.094;13.428;2023-02-22T01:12:54;101777.66;;;5.36;75.23
46045;BME280;31781;54.094;13.428;2023-02-22T01:14:56;101779.06;;;5.40;74.59
46045;BME280;31781;54.094;13.428;2023-02-22T01:16:58;101780.09;;;5.39;74.62
46045;BME280;31781;54.094;13.428;2023-02-22T01:19:01;101779.94;;;5.40;75.13
46045;BME280;31781;54.094;13.428;2023-02-22T01:21:03;101779.94;;;5.40;74.60
46045;BME280;31781;54.094;13.428;2023-02-22T01:23:05;101777.41;;;5.39;74.95
46045;BME280;31781;54.094;13.428;2023-02-22T01:25:08;101778.22;;;5.39;74.86
46045;BME280;31781;54.094;13.428;2023-02-22T01:27:10;101772.00;;;5.39;75.03
46045;BME280;31781;54.094;13.428;2023-02-22T01:29:12;101776.53;;;5.38;75.15
46045;BME280;31781;54.094;13.428;2023-02-22T01:31:14;101779.06;;;5.40;75.11
46045;BME280;31781;54.094;13.428;2023-02-22T01:33:16;101775.38;;;5.41;74.96
46045;BME280;31781;54.094;13.428;2023-02-22T01:35:22;101777.09;;;5.42;75.31
46045;BME280;31781;54.094;13.428;2023-02-22T01:37:23;101776.25;;;5.42;75.88
46045;BME280;31781;54.094;13.428;2023-02-22T01:39:26;101784.34;;;5.42;74.94
46045;BME280;31781;54.094;13.428;2023-02-22T01:41:27;101769.00;;;5.42;75.12
46045;BME280;31781;54.094;13.428;2023-02-22T01:43:30;101770.84;;;5.42;75.57
46045;BME280;31781;54.094;13.428;2023-02-22T01:45:48;101771.38;;;5.45;75.26
46045;BME280;31781;54.094;13.428;2023-02-22T01:47:50;101766.97;;;5.44;75.62
46045;BME280;31781;54.094;13.428;2023-02-22T01:49:52;101773.22;;;5.45;75.10
46045;BME280;31781;54.094;13.428;2023-02-22T01:51:57;101767.69;;;5.46;75.58
46045;BME280;31781;54.094;13.428;2023-02-22T01:54:06;101774.63;;;5.49;75.20
46045;BME280;31781;54.094;13.428;2023-02-22T01:56:09;101762.00;;;5.49;75.40
46045;BME280;31781;54.094;13.428;2023-02-22T01:58:12;101763.84;;;5.49;74.83
46045;BME280;31781;54.094;13.428;2023-02-22T02:00:17;101769.22;;;5.49;75.12
46045;BME280;31781;54.094;13.428;2023-02-22T02:02:20;101766.66;;;5.47;75.32
46045;BME280;31781;54.094;13.428;2023-02-22T02:04:23;101768.53;;;5.47;75.63
46045;BME280;31781;54.094;13.428;2023-02-22T02:06:25;101769.53;;;5.46;75.29
46045;BME280;31781;54.094;13.428;2023-02-22T02:08:34;101769.53;;;5.46;74.87
46045;BME280;31781;54.094;13.428;2023-02-22T02:10:38;101762.44;;;5.45;75.38
46045;BME280;31781;54.094;13.428;2023-02-22T02:12:42;101757.88;;;5.45;75.41
46045;BME280;31781;54.094;13.428;2023-02-22T02:14:44;101764.13;;;5.46;75.28
46045;BME280;31781;54.094;13.428;2023-02-22T02:16:48;101758.56;;;5.47;76.01
46045;BME280;31781;54.094;13.428;2023-02-22T02:18:51;101758.56;;;5.47;75.33
46045;BME280;31781;54.094;13.428;2023-02-22T02:21:18;101760.28;;;5.48;75.18
46045;BME280;31781;54.094;13.428;2023-02-22T02:26:40;101774.63;;;5.49;74.70
46045;BME280;31781;54.094;13.428;2023-02-22T02:29:12;101771.94;;;5.49;74.47
46045;BME280;31781;54.094;13.428;2023-02-22T02:34:02;101774.94;;;5.46;75.78
46045;BME280;31781;54.094;13.428;2023-02-22T02:36:09;101761.44;;;5.46;75.15
46045;BME280;31781;54.094;13.428;2023-02-22T02:38:22;101764.13;;;5.46;74.99
46045;BME280;31781;54.094;13.428;2023-02-22T02:40:31;101766.00;;;5.45;75.73
46045;BME280;31781;54.094;13.428;2023-02-22T02:42:44;101769.69;;;5.44;75.78
46045;BME280;31781;54.094;13.428;2023-02-22T02:44:54;101765.13;;;5.45;75.20
46045;BME280;31781;54.094;13.428;2023-02-22T02:46:59;101770.53;;;5.45;75.79
46045;BME280;31781;54.094;13.428;2023-02-22T02:49:09;101771.38;;;5.45;75.76
46045;BME280;31781;54.094;13.428;2023-02-22T02:51:12;101785.00;;;5.44;75.39
46045;BME280;31781;54.094;13.428;2023-02-22T02:53:18;101778.63;;;5.45;75.93
46045;BME280;31781;54.094;13.428;2023-02-22T02:55:22;101771.53;;;5.44;75.48
46045;BME280;31781;54.094;13.428;2023-02-22T02:57:24;101780.34;;;5.46;75.61
46045;BME280;31781;54.094;13.428;2023-02-22T02:59:28;101788.44;;;5.46;75.20
46045;BME280;31781;54.094;13.428;2023-02-22T03:01:44;101768.69;;;5.45;75.65
46045;BME280;31781;54.094;13.428;2023-02-22T03:04:18;101772.91;;;5.48;74.58
46045;BME280;31781;54.094;13.428;2023-02-22T03:06:37;101772.06;;;5.47;74.90
46045;BME280;31781;54.094;13.428;2023-02-22T03:08:42;101776.78;;;5.45;75.30
46045;BME280;31781;54.094;13.428;2023-02-22T03:10:52;101772.25;;;5.46;75.52
46045;BME280;31781;54.094;13.428;2023-02-22T03:13:05;101775.78;;;5.46;75.11
46045;BME280;31781;54.094;13.428;2023-02-22T03:15:18;101776.78;;;5.45;75.17
46045;BME280;31781;54.094;13.428;2023-02-22T03:17:30;101770.41;;;5.46;75.61
46045;BME280;31781;54.094;13.428;2023-02-22T03:19:39;101766.00;;;5.45;75.10
46045;BME280;31781;54.094;13.428;2023-02-22T03:21:53;101762.44;;;5.45;75.57
46045;BME280;31781;54.094;13.428;2023-02-22T03:24:04;101760.72;;;5.44;75.81
46045;BME280;31781;54.094;13.428;2023-02-22T03:26:09;101765.31;;;5.43;75.13
46045;BME280;31781;54.094;13.428;2023-02-22T03:28:16;101767.16;;;5.43;75.41
46045;BME280;31781;54.094;13.428;2023-02-22T03:30:23;101757.34;;;5.42;75.64
46045;BME280;31781;54.094;13.428;2023-02-22T03:32:29;101762.75;;;5.42;75.72
46045;BME280;31781;54.094;13.428;2023-02-22T03:34:36;101760.19;;;5.40;75.57
46045;BME280;31781;54.094;13.428;2023-02-22T03:36:43;101772.00;;;5.39;75.41
46045;BME280;31781;54.094;13.428;2023-02-22T03:38:48;101760.34;;;5.38;75.21
46045;BME280;31781;54.094;13.428;2023-02-22T03:40:53;101764.72;;;5.39;75.40
46045;BME280;31781;54.094;13.428;2023-02-22T03:43:01;101758.66;;;5.37;75.63
46045;BME280;31781;54.094;13.428;2023-02-22T03:45:06;101761.47;;;5.36;75.19
46045;BME280;31781;54.094;13.428;2023-02-22T03:47:14;101770.72;;;5.33;75.06
46045;BME280;31781;54.094;13.428;2023-02-22T03:49:22;101770.06;;;5.31;75.50
46045;BME280;31781;54.094;13.428;2023-02-22T03:51:27;101777.72;;;5.26;75.72
46045;BME280;31781;54.094;13.428;2023-02-22T03:53:31;101772.34;;;5.26;75.37
46045;BME280;31781;54.094;13.428;2023-02-22T03:55:33;101785.13;;;5.24;74.69
46045;BME280;31781;54.094;13.428;2023-02-22T03:57:37;101782.72;;;5.21;75.50
46045;BME280;31781;54.094;13.428;2023-02-22T03:59:40;101773.94;;;5.19;75.55
46045;BME280;31781;54.094;13.428;2023-02-22T04:01:42;101778.66;;;5.17;74.62
46045;BME280;31781;54.094;13.428;2023-02-22T04:03:44;101776.94;;;5.16;74.79
46045;BME280;31781;54.094;13.428;2023-02-22T04:05:46;101793.25;;;5.15;74.66
46045;BME280;31781;54.094;13.428;2023-02-22T04:07:50;101789.03;;;5.12;75.25
46045;BME280;31781;54.094;13.428;2023-02-22T04:09:51;101784.78;;;5.10;74.72
46045;BME280;31781;54.094;13.428;2023-02-22T04:11:54;101789.47;;;5.08;74.67
46045;BME280;31781;54.094;13.428;2023-02-22T04:13:55;101789.75;;;5.05;75.17
46045;BME280;31781;54.094;13.428;2023-02-22T04:15:57;101790.75;;;5.04;74.86
46045;BME280;31781;54.094;13.428;2023-02-22T04:17:59;101795.59;;;5.00;74.76
46045;BME280;31781;54.094;13.428;2023-02-22T04:20:00;101793.19;;;4.97;75.08
46045;BME280;31781;54.094;13.428;2023-02-22T04:22:02;101795.03;;;4.97;75.54
46045;BME280;31781;54.094;13.428;2023-02-22T04:24:06;101798.88;;;4.94;75.37
46045;BME280;31781;54.094;13.428;2023-02-22T04:26:08;101800.72;;;4.94;75.18
46045;BME280;31781;54.094;13.428;2023-02-22T04:28:10;101800.00;;;4.91;74.66
46045;BME280;31781;54.094;13.428;2023-02-22T04:30:12;101794.91;;;4.88;75.71
46045;BME280;31781;54.094;13.428;2023-02-22T04:32:14;101793.25;;;4.87;75.21
46045;BME280;31781;54.094;13.428;2023-02-22T04:34:16;101806.00;;;4.85;75.11
46045;BME280;31781;54.094;13.428;2023-02-22T04:36:18;101805.16;;;4.85;74.84
46045;BME280;31781;54.094;13.428;2023-02-22T04:38:20;101798.22;;;4.82;74.92
46045;BME280;31781;54.094;13.428;2023-02-22T04:40:23;101798.91;;;4.84;75.12
46045;BME280;31781;54.094;13.428;2023-02-22T04:42:25;101798.06;;;4.84;74.75
46045;BME280;31781;54.094;13.428;2023-02-22T04:44:26;101792.69;;;4.84;75.11
46045;BME280;31781;54.094;13.428;2023-02-22T04:46:28;101794.34;;;4.85;75.83
46045;BME280;31781;54.094;13.428;2023-02-22T04:48:30;101799.75;;;4.85;75.33
46045;BME280;31781;54.094;13.428;2023-02-22T04:50:32;101793.50;;;4.84;75.14
46045;BME280;31781;54.094;13.428;2023-02-22T04:52:34;101789.13;;;4.83;75.13
46045;BME280;31781;54.094;13.428;2023-02-22T04:54:36;101793.66;;;4.83;75.25
46045;BME280;31781;54.094;13.428;2023-02-22T04:56:39;101793.81;;;4.81;75.39
46045;BME280;31781;54.094;13.428;2023-02-22T04:58:40;101800.19;;;4.80;74.96
46045;BME280;31781;54.094;13.428;2023-02-22T05:00:42;101796.66;;;4.80;75.48
46045;BME280;31781;54.094;13.428;2023-02-22T05:02:43;101796.66;;;4.80;74.94
46045;BME280;31781;54.094;13.428;2023-02-22T05:04:45;101798.50;;;4.79;75.48
46045;BME280;31781;54.094;13.428;2023-02-22T05:06:47;101800.34;;;4.79;75.29
46045;BME280;31781;54.094;13.428;2023-02-22T05:08:49;101795.09;;;4.77;74.58
46045;BME280;31781;54.094;13.428;2023-02-22T05:10:51;101795.38;;;4.74;74.53
46045;BME280;31781;54.094;13.428;2023-02-22T05:12:54;101799.22;;;4.72;75.35
46045;BME280;31781;54.094;13.428;2023-02-22T05:14:56;101801.94;;;4.72;75.34
46045;BME280;31781;54.094;13.428;2023-02-22T05:16:57;101800.22;;;4.71;74.92
46045;BME280;31781;54.094;13.428;2023-02-22T05:18:59;101791.28;;;4.70;75.15
46045;BME280;31781;54.094;13.428;2023-02-22T05:21:01;101785.88;;;4.70;74.79
46045;BME280;31781;54.094;13.428;2023-02-22T05:23:03;101794.13;;;4.69;75.26
46045;BME280;31781;54.094;13.428;2023-02-22T05:25:05;101790.72;;;4.67;74.72
46045;BME280;31781;54.094;13.428;2023-02-22T05:27:06;101797.25;;;4.64;74.29
46045;BME280;31781;54.094;13.428;2023-02-22T05:29:11;101795.13;;;4.58;75.46
46045;BME280;31781;54.094;13.428;2023-02-22T05:31:13;101800.69;;;4.57;75.27
46045;BME280;31781;54.094;13.428;2023-02-22T05:33:15;101799.13;;;4.54;74.72
46045;BME280;31781;54.094;13.428;2023-02-22T05:35:17;101795.72;;;4.52;74.90
46045;BME280;31781;54.094;13.428;2023-02-22T05:37:18;101799.41;;;4.51;75.19
46045;BME280;31781;54.094;13.428;2023-02-22T05:39:20;101807.47;;;4.51;74.99
46045;BME280;31781;54.094;13.428;2023-02-22T05:41:22;101805.94;;;4.49;75.35
46045;BME280;31781;54.094;13.428;2023-02-22T05:43:24;101802.25;;;4.50;75.30
46045;BME280;31781;54.094;13.428;2023-02-22T05:45:27;101804.09;;;4.49;75.91
46045;BME280;31781;54.094;13.428;2023-02-22T05:47:29;101807.63;;;4.50;75.91
46045;BME280;31781;54.094;13.428;2023-02-22T05:49:31;101805.06;;;4.48;75.64
46045;BME280;31781;54.094;13.428;2023-02-22T05:51:32;101812.19;;;4.49;74.95
46045;BME280;31781;54.094;13.428;2023-02-22T05:53:34;101803.25;;;4.49;75.07
46045;BME280;31781;54.094;13.428;2023-02-22T05:55:36;101806.91;;;4.48;75.22
46045;BME280;31781;54.094;13.428;2023-02-22T05:57:38;101813.31;;;4.47;75.92
46045;BME280;31781;54.094;13.428;2023-02-22T05:59:39;101807.09;;;4.46;74.99
46045;BME280;31781;54.094;13.428;2023-02-22T06:01:42;101816.03;;;4.47;75.46
46045;BME280;31781;54.094;13.428;2023-02-22T06:03:45;101811.63;;;4.46;75.09
46045;BME280;31781;54.094;13.428;2023-02-22T06:05:47;101818.84;;;4.45;75.62
46045;BME280;31781;54.094;13.428;2023-02-22T06:07:49;101818.00;;;4.45;75.65
46045;BME280;31781;54.094;13.428;2023-02-22T06:09:51;101815.59;;;4.41;75.61
46045;BME280;31781;54.094;13.428;2023-02-22T06:11:53;101816.28;;;4.43;75.82
46045;BME280;31781;54.094;13.428;2023-02-22T06:13:54;101823.53;;;4.43;76.10
46045;BME280;31781;54.094;13.428;2023-02-22T06:15:56;101824.53;;;4.42;75.44
46045;BME280;31781;54.094;13.428;2023-02-22T06:18:00;101832.59;;;4.42;75.71
46045;BME280;31781;54.094;13.428;2023-02-22T06:20:02;101836.84;;;4.45;76.07
46045;BME280;31781;54.094;13.428;2023-02-22T06:22:04;101840.41;;;4.45;75.53
46045;BME280;31781;54.094;13.428;2023-02-22T06:24:07;101838.56;;;4.46;76.03
46045;BME280;31781;54.094;13.428;2023-02-22T06:26:09;101839.41;;;4.46;75.57
46045;BME280;31781;54.094;13.428;2023-02-22T06:28:10;101838.44;;;4.47;76.03
46045;BME280;31781;54.094;13.428;2023-02-22T06:30:14;101842.97;;;4.47;74.97
46045;BME280;31781;54.094;13.428;2023-02-22T06:32:16;101842.13;;;4.46;75.15
46045;BME280;31781;54.094;13.428;2023-02-22T06:34:20;101841.25;;;4.46;75.82
46045;BME280;31781;54.094;13.428;2023-02-22T06:36:22;101837.72;;;4.45;75.28
46045;BME280;31781;54.094;13.428;2023-02-22T06:38:24;101840.69;;;4.42;75.06
46045;BME280;31781;54.094;13.428;2023-02-22T06:40:26;101841.69;;;4.41;75.63
46045;BME280;31781;54.094;13.428;2023-02-22T06:42:28;101840.81;;;4.40;75.57
46045;BME280;31781;54.094;13.428;2023-02-22T06:44:30;101840.13;;;4.38;75.28
46045;BME280;31781;54.094;13.428;2023-02-22T06:46:31;101841.00;;;4.39;75.66
46045;BME280;31781;54.094;13.428;2023-02-22T06:48:36;101837.44;;;4.38;75.71
46045;BME280;31781;54.094;13.428;2023-02-22T06:50:40;101841.97;;;4.38;76.00
46045;BME280;31781;54.094;13.428;2023-02-22T06:52:42;101850.91;;;4.38;75.56
46045;BME280;31781;54.094;13.428;2023-02-22T06:54:44;101846.50;;;4.37;75.87
46045;BME280;31781;54.094;13.428;2023-02-22T06:56:46;101848.22;;;4.38;76.09
46045;BME280;31781;54.094;13.428;2023-02-22T06:58:47;101847.91;;;4.41;76.05
46045;BME280;31781;54.094;13.428;2023-02-22T07:00:49;101844.38;;;4.41;76.37
46045;BME280;31781;54.094;13.428;2023-02-22T07:02:52;101844.09;;;4.44;76.09
46045;BME280;31781;54.094;13.428;2023-02-22T07:04:54;101845.66;;;4.47;75.75
46045;BME280;31781;54.094;13.428;2023-02-22T07:06:57;101847.34;;;4.48;76.28
46045;BME280;31781;54.094;13.428;2023-02-22T07:08:59;101847.22;;;4.49;75.86
46045;BME280;31781;54.094;13.428;2023-02-22T07:11:01;101850.59;;;4.51;75.56
46045;BME280;31781;54.094;13.428;2023-02-22T07:13:16;101849.63;;;4.52;75.87
46045;BME280;31781;54.094;13.428;2023-02-22T07:15:19;101850.34;;;4.54;75.80
46045;BME280;31781;54.094;13.428;2023-02-22T07:17:21;101853.72;;;4.56;76.26
46045;BME280;31781;54.094;13.428;2023-02-22T07:19:23;101851.03;;;4.56;75.62
46045;BME280;31781;54.094;13.428;2023-02-22T07:21:24;101861.69;;;4.58;75.58
46045;BME280;31781;54.094;13.428;2023-02-22T07:23:28;101859.00;;;4.58;75.75
46045;BME280;31781;54.094;13.428;2023-02-22T07:25:30;101857.13;;;4.58;75.49
46045;BME280;31781;54.094;13.428;2023-02-22T07:27:31;101863.38;;;4.59;75.95
46045;BME280;31781;54.094;13.428;2023-02-22T07:29:33;101857.97;;;4.59;76.31
46045;BME280;31781;54.094;13.428;2023-02-22T07:31:36;101869.47;;;4.61;75.48
46045;BME280;31781;54.094;13.428;2023-02-22T07:33:37;101868.63;;;4.60;76.09
46045;BME280;31781;54.094;13.428;2023-02-22T07:35:43;101863.78;;;4.64;75.93
46045;BME280;31781;54.094;13.428;2023-02-22T07:37:45;101881.50;;;4.66;75.49
46045;BME280;31781;54.094;13.428;2023-02-22T07:39:48;101868.19;;;4.65;75.86
46045;BME280;31781;54.094;13.428;2023-02-22T07:41:50;101873.31;;;4.68;76.22
46045;BME280;31781;54.094;13.428;2023-02-22T07:43:52;101878.41;;;4.71;76.18
46045;BME280;31781;54.094;13.428;2023-02-22T07:45:55;101876.81;;;4.78;76.14
46045;BME280;31781;54.094;13.428;2023-02-22T07:47:59;101866.88;;;4.88;75.97
46045;BME280;31781;54.094;13.428;2023-02-22T07:50:01;101873.41;;;4.95;75.76
46045;BME280;31781;54.094;13.428;2023-02-22T07:52:02;101875.66;;;5.00;75.96
46045;BME280;31781;54.094;13.428;2023-02-22T07:54:04;101866.69;;;5.09;75.62
46045;BME280;31781;54.094;13.428;2023-02-22T07:56:07;101871.50;;;5.15;75.83
46045;BME280;31781;54.094;13.428;2023-02-22T07:58:12;101864.22;;;5.25;75.65
46045;BME280;31781;54.094;13.428;2023-02-22T08:00:20;101875.97;;;5.33;76.00
46045;BME280;31781;54.094;13.428;2023-02-22T08:02:24;101874.09;;;5.44;75.20
46045;BME280;31781;54.094;13.428;2023-02-22T08:04:26;101882.28;;;5.52;75.02
46045;BME280;31781;54.094;13.428;2023-02-22T08:06:27;101877.88;;;5.60;74.97
46045;BME280;31781;54.094;13.428;2023-02-22T08:08:30;101876.94;;;5.69;75.53
46045;BME280;31781;54.094;13.428;2023-02-22T08:10:32;101873.50;;;5.77;74.30
46045;BME280;31781;54.094;13.428;2023-02-22T08:12:37;101883.44;;;5.86;74.86
46045;BME280;31781;54.094;13.428;2023-02-22T08:14:39;101884.22;;;5.96;74.50
46045;BME280;31781;54.094;13.428;2023-02-22T08:16:40;101883.66;;;6.02;74.53
46045;BME280;31781;54.094;13.428;2023-02-22T08:18:42;101888.75;;;6.05;74.10
46045;BME280;31781;54.094;13.428;2023-02-22T08:20:46;101885.00;;;6.06;73.81
46045;BME280;31781;54.094;13.428;2023-02-22T08:22:48;101882.72;;;6.11;73.71
46045;BME280;31781;54.094;13.428;2023-02-22T08:24:50;101886.81;;;6.15;74.20
46045;BME280;31781;54.094;13.428;2023-02-22T08:26:52;101884.66;;;6.19;73.88
46045;BME280;31781;54.094;13.428;2023-02-22T08:28:56;101885.91;;;6.24;74.47
46045;BME280;31781;54.094;13.428;2023-02-22T08:30:58;101891.00;;;6.27;74.02
46045;BME280;31781;54.094;13.428;2023-02-22T08:33:00;101888.84;;;6.31;74.49
46045;BME280;31781;54.094;13.428;2023-02-22T08:35:02;101888.38;;;6.35;74.08
46045;BME280;31781;54.094;13.428;2023-02-22T08:37:04;101889.06;;;6.38;74.05
46045;BME280;31781;54.094;13.428;2023-02-22T08:39:06;101891.63;;;6.39;73.90
46045;BME280;31781;54.094;13.428;2023-02-22T08:41:08;101895.00;;;6.41;74.04
46045;BME280;31781;54.094;13.428;2023-02-22T08:43:09;101882.50;;;6.40;73.75
46045;BME280;31781;54.094;13.428;2023-02-22T08:45:13;101884.06;;;6.43;74.06
46045;BME280;31781;54.094;13.428;2023-02-22T08:47:14;101889.28;;;6.44;74.03
46045;BME280;31781;54.094;13.428;2023-02-22T08:49:16;101889.16;;;6.46;73.83
46045;BME280;31781;54.094;13.428;2023-02-22T08:51:19;101889.84;;;6.48;74.17
46045;BME280;31781;54.094;13.428;2023-02-22T08:53:21;101882.56;;;6.48;74.37
46045;BME280;31781;54.094;13.428;2023-02-22T08:55:25;101881.59;;;6.49;74.50
46045;BME280;31781;54.094;13.428;2023-02-22T08:57:27;101883.97;;;6.52;74.72
46045;BME280;31781;54.094;13.428;2023-02-22T08:59:29;101881.66;;;6.57;74.36
46045;BME280;31781;54.094;13.428;2023-02-22T09:01:32;101874.63;;;6.64;74.18
46045;BME280;31781;54.094;13.428;2023-02-22T09:03:34;101887.19;;;6.73;73.91
46045;BME280;31781;54.094;13.428;2023-02-22T09:05:36;101887.13;;;6.83;73.94
46045;BME280;31781;54.094;13.428;2023-02-22T09:07:40;101871.16;;;6.98;72.79
46045;BME280;31781;54.094;13.428;2023-02-22T09:09:42;101876.78;;;7.04;72.98
46045;BME280;31781;54.094;13.428;2023-02-22T09:11:44;101870.59;;;7.12;73.10
46045;BME280;31781;54.094;13.428;2023-02-22T09:13:45;101870.78;;;7.18;72.42
46045;BME280;31781;54.094;13.428;2023-02-22T09:15:47;101874.94;;;7.30;72.11
46045;BME280;31781;54.094;13.428;2023-02-22T09:17:51;101871.44;;;7.38;71.60
46045;BME280;31781;54.094;13.428;2023-02-22T09:19:53;101867.91;;;7.46;71.82
46045;BME280;31781;54.094;13.428;2023-02-22T09:21:57;101878.78;;;7.54;71.18
46045;BME280;31781;54.094;13.428;2023-02-22T09:23:59;101876.41;;;7.59;71.11
46045;BME280;31781;54.094;13.428;2023-02-22T09:26:01;101875.09;;;7.63;71.02
46045;BME280;31781;54.094;13.428;2023-02-22T09:28:03;101872.75;;;7.68;71.44
46045;BME280;31781;54.094;13.428;2023-02-22T09:30:07;101881.22;;;7.73;70.95
46045;BME280;31781;54.094;13.428;2023-02-22T09:32:09;101884.16;;;7.79;71.22
46045;BME280;31781;54.094;13.428;2023-02-22T09:34:13;101883.63;;;7.84;70.88
46045;BME280;31781;54.094;13.428;2023-02-22T09:36:15;101889.44;;;7.89;70.76
46045;BME280;31781;54.094;13.428;2023-02-22T09:38:19;101886.38;;;7.92;70.45
46045;BME280;31781;54.094;13.428;2023-02-22T09:40:23;101889.63;;;7.96;69.87
46045;BME280;31781;54.094;13.428;2023-02-22T09:42:30;101890.97;;;8.00;70.38
46045;BME280;31781;54.094;13.428;2023-02-22T09:44:37;101891.50;;;8.03;70.52
46045;BME280;31781;54.094;13.428;2023-02-22T09:46:44;101892.88;;;8.07;70.19
46045;BME280;31781;54.094;13.428;2023-02-22T09:48:55;101901.53;;;8.11;70.08
46045;BME280;31781;54.094;13.428;2023-02-22T09:51:01;101899.50;;;8.13;69.91
46045;BME280;31781;54.094;13.428;2023-02-22T09:53:07;101899.00;;;8.17;69.01
46045;BME280;31781;54.094;13.428;2023-02-22T09:55:22;101896.78;;;8.21;69.58
46045;BME280;31781;54.094;13.428;2023-02-22T09:57:32;101895.78;;;8.22;68.93
46045;BME280;31781;54.094;13.428;2023-02-22T09:59:40;101892.56;;;8.18;69.63
46045;BME280;31781;54.094;13.428;2023-02-22T10:01:46;101899.84;;;8.18;69.93
46045;BME280;31781;54.094;13.428;2023-02-22T10:03:54;101894.28;;;8.19;69.04
46045;BME280;31781;54.094;13.428;2023-02-22T10:06:03;101884.59;;;8.17;69.44
46045;BME280;31781;54.094;13.428;2023-02-22T10:08:10;101882.06;;;8.15;69.26
46045;BME280;31781;54.094;13.428;2023-02-22T10:10:14;101883.06;;;8.14;69.12
46045;BME280;31781;54.094;13.428;2023-02-22T10:12:24;101883.56;;;8.18;69.72
46045;BME280;31781;54.094;13.428;2023-02-22T10:15:03;101885.09;;;8.20;69.36
46045;BME280;31781;54.094;13.428;2023-02-22T10:17:14;101888.84;;;8.19;69.13
46045;BME280;31781;54.094;13.428;2023-02-22T10:19:26;101886.47;;;8.16;69.34
46045;BME280;31781;54.094;13.428;2023-02-22T10:21:45;101889.00;;;8.18;69.52
46045;BME280;31781;54.094;13.428;2023-02-22T10:23:56;101888.47;;;8.14;68.67
46045;BME280;31781;54.094;13.428;2023-02-22T10:26:13;101884.06;;;8.13;69.07
46045;BME280;31781;54.094;13.428;2023-02-22T10:28:21;101890.69;;;8.11;69.08
46045;BME280;31781;54.094;13.428;2023-02-22T10:30:28;101884.75;;;8.07;69.12
46045;BME280;31781;54.094;13.428;2023-02-22T10:32:40;101888.47;;;8.06;70.19
46045;BME280;31781;54.094;13.428;2023-02-22T10:34:46;101892.88;;;8.07;69.39
46045;BME280;31781;54.094;13.428;2023-02-22T10:36:54;101891.00;;;8.08;69.51
46045;BME280;31781;54.094;13.428;2023-02-22T10:38:59;101884.59;;;8.09;69.97
46045;BME280;31781;54.094;13.428;2023-02-22T10:41:13;101877.13;;;8.11;70.25
46045;BME280;31781;54.094;13.428;2023-02-22T10:43:19;101883.91;;;8.15;68.93
46045;BME280;31781;54.094;13.428;2023-02-22T10:45:24;101875.78;;;8.15;68.96
46045;BME280;31781;54.094;13.428;2023-02-22T10:47:27;101877.31;;;8.17;68.85
46045;BME280;31781;54.094;13.428;2023-02-22T10:49:34;101878.16;;;8.18;69.74
46045;BME280;31781;54.094;13.428;2023-02-22T10:51:37;101869.53;;;8.22;69.33
46045;BME280;31781;54.094;13.428;2023-02-22T10:53:40;101868.34;;;8.25;69.23
46045;BME280;31781;54.094;13.428;2023-02-22T10:56:13;101866.03;;;8.30;70.25